Time;durP1;ratioP1;P1;durP2;ratioP2;P2;SDS_P1;SDS_P2;PMS_P1;PMS_P2;Temp;Humidity;BMP_temperature;BMP_pressure;BME280_temperature;BME280_humidity;BME280_pressure;Samples;Min_cycle;Max_cycle;Signal;HPM_P1;HPM_P2
2022/04/14 00:00:12;;;;;;;23.30;13.18;;;14.20;99.90;;;;;;5072466;28;20028;-80
2022/04/14 00:02:38;;;;;;;32.55;13.60;;;14.20;99.90;;;;;;5071724;28;20025;-80
2022/04/14 00:05:04;;;;;;;30.27;14.02;;;14.30;99.90;;;;;;5073242;28;20107;-80
2022/04/14 00:07:30;;;;;;;28.98;14.00;;;14.30;99.90;;;;;;5075615;28;20025;-81
2022/04/14 00:09:55;;;;;;;30.52;14.18;;;14.30;99.90;;;;;;5075690;28;20032;-80
2022/04/14 00:12:21;;;;;;;25.98;13.60;;;14.40;99.90;;;;;;5075149;28;20040;-80
2022/04/14 00:14:48;;;;;;;32.15;14.07;;;14.40;99.90;;;;;;5075426;28;20095;-80
2022/04/14 00:17:13;;;;;;;36.35;16.48;;;14.40;99.90;;;;;;5057295;28;20021;-80
2022/04/14 00:19:40;;;;;;;36.05;17.27;;;14.40;99.90;;;;;;5075365;28;20031;-80
2022/04/14 00:22:06;;;;;;;35.05;18.63;;;14.40;99.90;;;;;;5075315;28;20020;-80
2022/04/14 00:24:33;;;;;;;33.25;18.25;;;14.40;99.90;;;;;;5057559;28;20059;-80
2022/04/14 00:26:58;;;;;;;52.05;20.27;;;14.40;99.90;;;;;;5074394;28;20052;-80
2022/04/14 00:29:24;;;;;;;44.75;20.13;;;14.40;99.90;;;;;;5075421;28;20119;-80
2022/04/14 00:31:50;;;;;;;41.28;19.52;;;14.40;99.90;;;;;;5075183;28;20082;-80
2022/04/14 00:34:16;;;;;;;45.60;24.10;;;14.30;99.90;;;;;;5075087;28;20029;-80
2022/04/14 00:36:41;;;;;;;48.05;24.83;;;14.40;99.90;;;;;;5056766;28;20111;-81
2022/04/14 00:39:09;;;;;;;52.00;26.63;;;14.40;99.90;;;;;;5075317;28;20032;-80
2022/04/14 00:41:36;;;;;;;50.97;27.60;;;14.40;99.90;;;;;;5068013;28;20017;-80
2022/04/14 00:44:03;;;;;;;52.35;28.45;;;14.40;99.90;;;;;;5074564;28;20361;-80
2022/04/14 00:46:29;;;;;;;55.78;29.38;;;14.40;99.90;;;;;;5074639;28;20039;-80
2022/04/14 00:48:56;;;;;;;64.82;29.55;;;14.40;99.90;;;;;;5056385;28;20024;-80
2022/04/14 00:51:22;;;;;;;53.40;30.02;;;14.40;99.90;;;;;;5075069;28;20028;-80
2022/04/14 00:53:47;;;;;;;54.85;30.23;;;14.30;99.90;;;;;;5074543;28;20120;-79
2022/04/14 00:56:13;;;;;;;55.40;30.45;;;14.30;99.90;;;;;;5056506;28;20031;-80
2022/04/14 00:58:40;;;;;;;55.47;32.60;;;14.30;99.90;;;;;;5074729;28;20024;-80
2022/04/14 01:01:07;;;;;;;69.18;35.20;;;14.30;99.90;;;;;;5056407;28;20075;-80
2022/04/14 01:03:34;;;;;;;64.93;34.88;;;14.20;99.90;;;;;;5074180;28;20042;-80
2022/04/14 01:06:01;;;;;;;53.97;33.75;;;14.20;99.90;;;;;;5074924;28;20028;-80
2022/04/14 01:08:29;;;;;;;55.60;33.22;;;14.10;99.90;;;;;;5074215;28;20029;-80
2022/04/14 01:10:57;;;;;;;51.97;31.83;;;14.10;99.90;;;;;;5074665;28;20100;-80
2022/04/14 01:13:23;;;;;;;54.88;32.97;;;14.10;99.90;;;;;;5056324;28;20031;-80
2022/04/14 01:15:49;;;;;;;59.45;32.17;;;14.10;99.90;;;;;;5073922;28;20024;-80
2022/04/14 01:18:15;;;;;;;50.17;28.60;;;14.10;99.90;;;;;;5073640;28;20032;-80
2022/04/14 01:20:44;;;;;;;43.80;25.88;;;14.00;99.90;;;;;;5056649;28;20066;-80
2022/04/14 01:23:11;;;;;;;46.80;26.80;;;13.90;99.90;;;;;;5074010;28;20119;-80
2022/04/14 01:25:38;;;;;;;43.78;26.65;;;13.90;99.90;;;;;;5074150;28;20040;-80
2022/04/14 01:28:04;;;;;;;51.45;25.52;;;13.80;99.90;;;;;;5056460;28;20028;-80
2022/04/14 01:30:31;;;;;;;39.60;23.42;;;13.80;99.90;;;;;;5055936;28;20051;-80
2022/04/14 01:33:18;;;;;;;41.28;24.90;;;13.80;99.90;;;;;;5073477;28;20028;-80
2022/04/14 01:35:43;;;;;;;42.30;23.20;;;13.70;99.90;;;;;;5073501;28;20028;-79
2022/04/14 01:38:09;;;;;;;50.70;24.48;;;13.70;99.90;;;;;;5056089;28;20013;-79
2022/04/14 01:40:35;;;;;;;44.17;20.85;;;13.60;99.90;;;;;;5073380;28;20024;-80
2022/04/14 01:43:00;;;;;;;35.40;20.35;;;13.60;99.90;;;;;;5055331;28;20028;-79
2022/04/14 01:45:26;;;;;;;36.55;19.55;;;13.50;99.90;;;;;;5073848;28;20032;-80
2022/04/14 01:47:52;;;;;;;38.40;19.77;;;13.40;99.90;;;;;;5073146;28;20035;-80
2022/04/14 01:50:19;;;;;;;35.20;18.70;;;13.40;99.90;;;;;;5073906;28;20021;-80
2022/04/14 01:52:44;;;;;;;34.05;18.83;;;13.40;99.90;;;;;;5073527;28;20032;-80
2022/04/14 01:55:10;;;;;;;37.65;17.25;;;13.40;99.90;;;;;;5073479;28;20043;-80
2022/04/14 01:57:36;;;;;;;31.75;16.17;;;13.40;99.90;;;;;;5073682;28;20016;-80
2022/04/14 02:00:05;;;;;;;31.45;17.17;;;13.40;99.90;;;;;;5073443;28;20028;-80
2022/04/14 02:02:30;;;;;;;31.83;16.45;;;13.30;99.90;;;;;;5073062;28;20103;-80
2022/04/14 02:04:56;;;;;;;34.13;17.17;;;13.30;99.90;;;;;;5073446;28;20516;-80
2022/04/14 02:07:21;;;;;;;31.80;15.98;;;13.20;99.90;;;;;;5073168;28;20024;-80
2022/04/14 02:09:47;;;;;;;31.73;15.95;;;13.20;99.90;;;;;;5073631;28;20028;-80
2022/04/14 02:12:12;;;;;;;26.45;15.48;;;13.20;99.90;;;;;;5055177;28;20020;-80
2022/04/14 02:14:39;;;;;;;31.90;17.17;;;13.10;99.90;;;;;;5073001;28;20028;-80
2022/04/14 02:17:05;;;;;;;27.20;15.45;;;13.10;99.90;;;;;;5072592;28;20364;-80
2022/04/14 02:19:32;;;;;;;34.65;17.35;;;13.20;99.90;;;;;;5073374;28;20029;-80
2022/04/14 02:21:58;;;;;;;33.67;16.55;;;13.10;99.90;;;;;;5054790;28;20077;-80
2022/04/14 02:24:27;;;;;;;30.25;17.10;;;13.00;99.90;;;;;;5072559;28;20021;-80
2022/04/14 02:26:53;;;;;;;24.50;14.85;;;13.00;99.90;;;;;;5072394;28;20040;-80
2022/04/14 02:29:19;;;;;;;27.23;15.55;;;13.00;99.90;;;;;;5071983;28;20150;-80
2022/04/14 02:31:45;;;;;;;30.70;16.45;;;13.00;99.90;;;;;;5073131;28;20522;-80
2022/04/14 02:34:12;;;;;;;26.88;15.48;;;13.00;99.90;;;;;;5054404;28;20301;-80
2022/04/14 02:36:38;;;;;;;33.80;15.85;;;12.90;99.90;;;;;;5072930;28;20029;-80
2022/04/14 02:39:03;;;;;;;28.40;16.40;;;13.00;99.90;;;;;;5072702;28;20028;-80
2022/04/14 02:41:29;;;;;;;37.50;16.13;;;12.90;99.90;;;;;;5072355;28;20041;-80
2022/04/14 02:43:54;;;;;;;30.45;15.45;;;12.90;99.90;;;;;;5054192;28;20392;-80
2022/04/14 02:46:20;;;;;;;35.35;16.63;;;12.90;99.90;;;;;;5055192;28;20028;-80
2022/04/14 02:48:45;;;;;;;28.77;16.27;;;12.80;99.90;;;;;;5072534;28;20032;-80
2022/04/14 02:51:11;;;;;;;35.05;17.60;;;12.90;99.90;;;;;;5072863;28;20033;-80
2022/04/14 02:53:37;;;;;;;34.35;17.27;;;12.80;99.90;;;;;;5054278;28;20066;-81
2022/04/14 02:56:04;;;;;;;34.13;17.15;;;12.90;99.90;;;;;;5072422;28;20032;-80
2022/04/14 02:58:29;;;;;;;32.65;15.93;;;12.80;99.90;;;;;;5072363;28;20012;-80
2022/04/14 03:00:55;;;;;;;25.42;15.23;;;12.80;99.90;;;;;;5072600;28;20165;-80
2022/04/14 03:03:23;;;;;;;33.70;17.05;;;12.70;99.90;;;;;;5071957;28;20032;-80
2022/04/14 03:05:50;;;;;;;28.77;16.15;;;12.70;99.90;;;;;;5072533;28;20365;-80
2022/04/14 03:08:15;;;;;;;33.30;16.98;;;12.70;99.90;;;;;;5072498;28;20028;-80
2022/04/14 03:10:41;;;;;;;28.80;16.73;;;12.70;99.90;;;;;;5072379;28;20395;-80
2022/04/14 03:13:07;;;;;;;38.45;17.95;;;12.70;99.90;;;;;;5054071;28;20074;-80
2022/04/14 03:15:32;;;;;;;34.15;17.55;;;12.70;99.90;;;;;;5054825;28;20043;-80
2022/04/14 03:17:58;;;;;;;29.23;15.85;;;12.60;99.90;;;;;;5072039;28;20024;-80
2022/04/14 03:20:23;;;;;;;28.85;16.35;;;12.60;99.90;;;;;;5072374;28;20352;-80
2022/04/14 03:22:50;;;;;;;37.00;18.85;;;12.60;99.90;;;;;;5072012;28;20059;-80
2022/04/14 03:25:16;;;;;;;26.55;15.45;;;12.60;99.90;;;;;;5071851;28;20499;-80
2022/04/14 03:27:42;;;;;;;36.85;15.55;;;12.50;99.90;;;;;;5072016;28;20024;-80
2022/04/14 03:30:10;;;;;;;35.33;16.63;;;12.60;99.90;;;;;;5071534;28;20334;-80
2022/04/14 03:32:46;;;;;;;36.97;17.50;;;12.50;99.90;;;;;;5069174;28;20484;-80
2022/04/14 03:35:13;;;;;;;28.27;16.23;;;12.50;99.90;;;;;;5072346;28;20032;-80
2022/04/14 03:37:39;;;;;;;36.28;17.48;;;12.50;99.90;;;;;;5072025;28;20032;-80
2022/04/14 03:40:06;;;;;;;37.40;17.42;;;12.50;99.90;;;;;;5073402;28;20107;-80
2022/04/14 03:42:32;;;;;;;24.80;15.57;;;12.50;99.90;;;;;;5075913;28;20082;-80
2022/04/14 03:44:58;;;;;;;32.53;17.17;;;12.40;99.90;;;;;;5076314;28;20028;-80
2022/04/14 03:47:24;;;;;;;29.52;15.88;;;12.40;99.90;;;;;;5075928;28;20063;-80
2022/04/14 03:49:50;;;;;;;27.55;15.70;;;12.50;99.90;;;;;;5075358;28;20024;-79
2022/04/14 03:52:16;;;;;;;29.02;16.20;;;12.40;99.90;;;;;;5058114;28;20021;-79
2022/04/14 03:54:42;;;;;;;29.02;14.52;;;12.40;99.90;;;;;;5075587;28;20068;-80
2022/04/14 03:57:07;;;;;;;43.08;18.35;;;12.40;99.90;;;;;;5056330;28;20016;-80
2022/04/14 03:59:36;;;;;;;36.60;15.35;;;12.40;99.90;;;;;;5075395;28;20032;-80
2022/04/14 04:02:01;;;;;;;31.02;16.10;;;12.30;99.90;;;;;;5058084;28;20024;-80
2022/04/14 04:04:27;;;;;;;26.42;15.80;;;12.30;99.90;;;;;;5075715;28;20150;-80
2022/04/14 04:06:52;;;;;;;23.95;14.38;;;12.30;99.90;;;;;;5075806;28;20024;-80
2022/04/14 04:09:18;;;;;;;33.55;15.23;;;12.30;99.90;;;;;;5053096;28;20547;-80
2022/04/14 04:11:43;;;;;;;29.52;14.23;;;12.30;99.90;;;;;;5073388;28;20024;-80
2022/04/14 04:14:10;;;;;;;28.45;15.32;;;12.30;99.90;;;;;;5075101;28;20036;-80
2022/04/14 04:16:35;;;;;;;28.02;14.75;;;12.30;99.90;;;;;;5075801;28;20492;-79
2022/04/14 04:19:01;;;;;;;27.48;15.35;;;12.30;99.90;;;;;;5057392;28;20064;-80
2022/04/14 04:21:29;;;;;;;21.98;12.60;;;12.30;99.90;;;;;;5075129;28;20024;-80
2022/04/14 04:23:56;;;;;;;27.77;13.77;;;12.30;99.90;;;;;;5074815;28;20043;-79
2022/04/14 04:26:21;;;;;;;23.02;13.77;;;12.30;99.90;;;;;;5074606;28;20060;-79
2022/04/14 04:28:47;;;;;;;23.38;12.90;;;12.30;99.90;;;;;;5074973;28;20032;-80
2022/04/14 04:31:15;;;;;;;18.98;12.85;;;12.30;99.90;;;;;;5075207;28;20025;-82
2022/04/14 04:33:40;;;;;;;28.35;12.95;;;12.30;99.90;;;;;;5056885;28;20115;-79
2022/04/14 04:36:07;;;;;;;31.27;12.88;;;12.40;99.90;;;;;;5073627;28;20132;-79
2022/04/14 04:38:32;;;;;;;21.65;12.52;;;12.30;99.90;;;;;;5072868;28;20025;-79
2022/04/14 04:40:58;;;;;;;28.10;13.02;;;12.40;99.90;;;;;;5072549;28;20039;-79
2022/04/14 04:43:25;;;;;;;27.25;13.07;;;12.40;99.90;;;;;;5074001;28;20056;-79
2022/04/14 04:45:51;;;;;;;24.52;11.80;;;12.30;99.90;;;;;;5056992;28;20025;-79
2022/04/14 04:48:17;;;;;;;25.35;12.68;;;12.30;99.90;;;;;;5074738;28;20031;-79
2022/04/14 04:50:43;;;;;;;29.83;12.32;;;12.30;99.90;;;;;;5055491;28;20024;-79
2022/04/14 04:53:08;;;;;;;21.10;11.43;;;12.40;99.90;;;;;;5073408;28;20064;-79
2022/04/14 04:55:34;;;;;;;26.08;12.27;;;12.40;99.90;;;;;;5056290;28;20044;-79
2022/04/14 04:57:59;;;;;;;24.33;12.15;;;12.40;99.90;;;;;;5074468;28;20766;-79
2022/04/14 05:00:25;;;;;;;26.70;12.73;;;12.40;99.90;;;;;;5074474;28;20507;-79
2022/04/14 05:02:51;;;;;;;24.27;11.90;;;12.40;99.90;;;;;;5074137;28;20024;-79
2022/04/14 05:05:17;;;;;;;25.38;11.77;;;12.40;99.90;;;;;;5074139;28;20029;-78
2022/04/14 05:07:43;;;;;;;22.55;11.02;;;12.40;99.90;;;;;;5074824;28;20052;-80
2022/04/14 05:10:08;;;;;;;20.92;11.40;;;12.40;99.90;;;;;;5074618;28;20052;-79
2022/04/14 05:12:34;;;;;;;25.95;12.43;;;12.40;99.90;;;;;;5073944;28;20024;-79
2022/04/14 05:15:00;;;;;;;21.75;10.18;;;12.50;99.90;;;;;;5056475;28;20123;-81
2022/04/14 05:17:26;;;;;;;23.02;10.27;;;12.50;99.90;;;;;;5055795;28;20013;-81
2022/04/14 05:19:52;;;;;;;22.42;10.63;;;12.50;99.90;;;;;;5074411;28;20034;-79
2022/04/14 05:22:18;;;;;;;20.65;9.75;;;12.50;99.90;;;;;;5073703;28;20071;-79
2022/04/14 05:24:43;;;;;;;22.90;11.00;;;12.50;99.90;;;;;;5073975;28;20067;-79
2022/04/14 05:27:09;;;;;;;20.92;10.25;;;12.50;99.90;;;;;;5074267;28;20040;-79
2022/04/14 05:29:36;;;;;;;19.80;9.45;;;12.50;99.90;;;;;;5074333;28;20455;-79
2022/04/14 05:32:01;;;;;;;22.17;10.18;;;12.50;99.90;;;;;;5073943;28;20036;-79
2022/04/14 05:34:27;;;;;;;17.20;8.88;;;12.50;99.90;;;;;;5074349;28;20029;-79
2022/04/14 05:36:52;;;;;;;17.15;8.68;;;12.50;99.90;;;;;;5055939;28;20021;-79
2022/04/14 05:39:18;;;;;;;23.65;10.02;;;12.60;99.90;;;;;;5056226;28;20052;-79
2022/04/14 05:41:44;;;;;;;18.38;9.05;;;12.60;99.90;;;;;;5073681;28;20044;-79
2022/04/14 05:44:09;;;;;;;15.23;8.32;;;12.60;99.90;;;;;;5073377;28;20055;-79
2022/04/14 05:46:35;;;;;;;15.93;8.68;;;12.60;99.90;;;;;;5073512;28;20388;-79
2022/04/14 05:49:01;;;;;;;21.60;8.93;;;12.60;99.90;;;;;;5074085;28;20028;-79
2022/04/14 05:51:26;;;;;;;22.27;8.85;;;12.60;99.90;;;;;;5073543;28;20025;-79
2022/04/14 05:53:53;;;;;;;20.70;9.02;;;12.70;99.90;;;;;;5073844;28;20039;-79
2022/04/14 05:56:19;;;;;;;18.75;8.70;;;12.70;99.90;;;;;;5073410;28;20032;-79
2022/04/14 05:58:46;;;;;;;19.63;8.57;;;12.70;99.90;;;;;;5073710;28;20020;-79
2022/04/14 06:01:12;;;;;;;21.55;9.13;;;12.70;99.90;;;;;;5073734;28;20048;-79
2022/04/14 06:03:40;;;;;;;13.35;8.85;;;12.70;99.90;;;;;;5055002;28;20067;-79
2022/04/14 06:06:06;;;;;;;17.60;9.50;;;12.80;99.90;;;;;;5072925;28;20472;-80
2022/04/14 06:08:32;;;;;;;20.67;10.05;;;12.70;99.90;;;;;;5055616;28;20033;-78
2022/04/14 06:10:57;;;;;;;20.92;9.35;;;12.70;99.90;;;;;;5054765;28;20081;-78
2022/04/14 06:13:24;;;;;;;16.65;9.05;;;12.70;99.90;;;;;;5073350;28;20405;-78
2022/04/14 06:15:49;;;;;;;18.00;9.32;;;12.70;99.90;;;;;;5072583;28;20024;-78
2022/04/14 06:18:18;;;;;;;19.35;10.27;;;12.80;99.90;;;;;;5072835;28;20035;-78
2022/04/14 06:20:47;;;;;;;23.90;11.57;;;12.80;99.90;;;;;;5072804;28;20032;-78
2022/04/14 06:23:16;;;;;;;17.90;10.40;;;12.80;99.90;;;;;;5073257;28;20465;-78
2022/04/14 06:25:45;;;;;;;27.02;11.85;;;12.80;99.90;;;;;;5072741;28;20040;-78
2022/04/14 06:28:10;;;;;;;22.40;12.27;;;12.90;99.90;;;;;;5072911;28;20024;-78
2022/04/14 06:30:36;;;;;;;26.15;12.23;;;12.90;99.90;;;;;;5072784;28;20038;-78
2022/04/14 06:33:04;;;;;;;23.75;12.55;;;13.00;99.90;;;;;;5073105;28;20492;-78
2022/04/14 06:35:30;;;;;;;29.05;12.23;;;12.90;99.90;;;;;;5072847;28;20024;-78
2022/04/14 06:37:56;;;;;;;27.58;12.38;;;12.90;99.90;;;;;;5073203;28;20020;-78
2022/04/14 06:40:22;;;;;;;31.73;12.05;;;12.90;99.90;;;;;;5072452;28;20031;-78
2022/04/14 06:42:48;;;;;;;25.67;12.13;;;12.90;99.90;;;;;;5072671;28;20024;-78
2022/04/14 06:45:15;;;;;;;24.85;12.25;;;12.90;99.90;;;;;;5072376;28;20481;-79
2022/04/14 06:47:40;;;;;;;26.40;12.73;;;12.90;99.90;;;;;;5053964;28;20032;-78
2022/04/14 06:50:07;;;;;;;47.75;15.82;;;12.90;99.90;;;;;;5073053;28;20017;-78
2022/04/14 06:52:32;;;;;;;22.95;11.90;;;12.80;99.90;;;;;;5071902;28;20035;-78
2022/04/14 06:54:59;;;;;;;27.27;11.98;;;12.80;99.90;;;;;;5066831;28;20036;-78
2022/04/14 06:57:24;;;;;;;24.80;12.60;;;12.80;99.90;;;;;;5072914;28;20063;-78
2022/04/14 06:59:50;;;;;;;28.50;12.90;;;12.80;99.90;;;;;;5072548;28;20056;-78
2022/04/14 07:02:15;;;;;;;23.92;12.40;;;12.80;99.90;;;;;;5072678;28;20053;-78
2022/04/14 07:04:41;;;;;;;23.38;12.38;;;12.80;99.90;;;;;;5072771;28;20032;-78
2022/04/14 07:07:07;;;;;;;24.02;13.35;;;12.80;99.90;;;;;;5070873;28;20063;-78
2022/04/14 07:09:33;;;;;;;23.08;12.27;;;12.80;99.90;;;;;;5072000;28;20115;-78
2022/04/14 07:12:00;;;;;;;31.17;15.05;;;12.80;99.90;;;;;;5072121;28;20141;-78
2022/04/14 07:14:30;;;;;;;26.38;14.48;;;12.90;99.90;;;;;;5071415;28;20038;-78
2022/04/14 07:16:56;;;;;;;27.35;14.68;;;12.90;99.90;;;;;;5070840;28;20158;-78
2022/04/14 07:19:22;;;;;;;28.13;13.35;;;12.90;99.90;;;;;;5071853;28;20032;-78
2022/04/14 07:21:47;;;;;;;24.30;12.65;;;12.90;99.90;;;;;;5072813;28;20016;-78
2022/04/14 07:24:14;;;;;;;25.27;13.07;;;12.90;99.90;;;;;;5054106;28;20511;-78
2022/04/14 07:26:39;;;;;;;26.83;15.63;;;12.90;99.90;;;;;;5072541;28;20041;-78
2022/04/14 07:29:05;;;;;;;27.42;15.73;;;12.90;99.90;;;;;;5072619;28;20364;-78
2022/04/14 07:31:31;;;;;;;26.92;15.20;;;12.90;99.90;;;;;;5071492;28;20071;-78
2022/04/14 07:33:58;;;;;;;21.58;14.70;;;13.00;99.90;;;;;;5072506;28;20115;-78
2022/04/14 07:36:27;;;;;;;28.70;16.02;;;12.90;99.90;;;;;;5072635;28;20472;-78
2022/04/14 07:38:53;;;;;;;27.38;15.93;;;12.90;99.90;;;;;;5071219;28;20111;-78
2022/04/14 07:41:18;;;;;;;24.25;14.77;;;12.90;99.90;;;;;;5054133;28;20456;-78
2022/04/14 07:43:44;;;;;;;35.60;19.25;;;13.00;99.90;;;;;;5072275;28;20375;-78
2022/04/14 07:46:10;;;;;;;33.35;19.90;;;13.00;99.90;;;;;;5072316;28;20039;-78
2022/04/14 07:48:37;;;;;;;41.40;20.52;;;13.00;99.90;;;;;;5072247;28;20369;-78
2022/04/14 07:51:03;;;;;;;42.75;23.15;;;13.00;99.90;;;;;;5072197;28;20032;-78
2022/04/14 07:53:31;;;;;;;36.30;21.02;;;13.00;99.90;;;;;;5072351;28;20035;-78
2022/04/14 07:55:56;;;;;;;45.50;21.85;;;13.00;99.90;;;;;;5070620;28;20119;-78
2022/04/14 07:58:22;;;;;;;46.40;23.05;;;12.90;99.90;;;;;;5054463;28;20048;-78
2022/04/14 08:00:50;;;;;;;49.63;24.17;;;13.00;99.90;;;;;;5072196;28;20445;-78
2022/04/14 08:03:17;;;;;;;44.33;22.00;;;13.00;99.90;;;;;;5071985;28;20025;-78
2022/04/14 08:05:45;;;;;;;49.03;23.42;;;13.00;99.90;;;;;;5072336;28;20032;-78
2022/04/14 08:08:13;;;;;;;52.53;23.98;;;12.90;99.90;;;;;;5072138;28;20118;-78
2022/04/14 08:10:40;;;;;;;41.13;23.08;;;13.00;99.90;;;;;;5071914;28;20058;-78
2022/04/14 08:13:07;;;;;;;59.08;24.15;;;13.00;99.90;;;;;;5071758;28;20032;-78
2022/04/14 08:15:33;;;;;;;54.08;24.10;;;13.00;99.90;;;;;;5072068;28;20016;-78
2022/04/14 08:17:59;;;;;;;65.93;28.52;;;13.00;99.90;;;;;;5072175;28;20021;-78
2022/04/14 08:20:25;;;;;;;55.60;25.98;;;13.00;99.90;;;;;;5071835;28;20028;-78
2022/04/14 08:22:54;;;;;;;54.50;24.98;;;13.00;99.90;;;;;;5071976;28;20441;-78
2022/04/14 08:25:22;;;;;;;59.38;25.90;;;12.90;99.90;;;;;;5071661;28;20392;-78
2022/04/14 08:27:49;;;;;;;58.95;27.55;;;13.00;99.90;;;;;;5075626;28;20372;-78
2022/04/14 08:30:17;;;;;;;57.55;24.35;;;12.90;99.90;;;;;;5075330;28;20025;-78
2022/04/14 08:32:46;;;;;;;61.53;26.55;;;12.90;99.90;;;;;;5057521;28;20066;-78
2022/04/14 08:35:14;;;;;;;52.45;26.48;;;13.00;99.90;;;;;;5075552;28;20025;-78
2022/04/14 08:37:40;;;;;;;56.42;24.60;;;13.00;99.90;;;;;;5075422;28;20024;-78
2022/04/14 08:40:08;;;;;;;55.33;25.25;;;13.00;99.90;;;;;;5075132;28;20048;-78
2022/04/14 08:42:57;;;;;;;50.63;26.42;;;13.00;99.90;;;;;;5074975;28;20036;-78
2022/04/14 08:45:25;;;;;;;52.35;26.50;;;13.00;99.90;;;;;;5075271;28;20422;-78
2022/04/14 08:47:51;;;;;;;59.28;27.48;;;13.00;99.90;;;;;;5075484;28;20016;-78
2022/04/14 08:50:18;;;;;;;61.25;28.35;;;13.00;99.90;;;;;;5075232;28;20444;-78
2022/04/14 08:52:44;;;;;;;47.50;23.75;;;13.00;99.90;;;;;;5057206;28;20056;-78
2022/04/14 08:55:14;;;;;;;58.88;27.42;;;13.00;99.90;;;;;;5074538;28;20443;-78
2022/04/14 08:57:42;;;;;;;59.28;27.17;;;13.00;99.90;;;;;;5075261;28;20031;-78
2022/04/14 09:00:10;;;;;;;50.08;25.73;;;13.10;99.90;;;;;;5075016;28;20012;-78
2022/04/14 09:02:37;;;;;;;48.15;26.25;;;13.10;99.90;;;;;;5074789;28;20035;-78
2022/04/14 09:05:04;;;;;;;48.42;25.77;;;13.10;99.90;;;;;;5074893;28;20029;-78
2022/04/14 09:07:29;;;;;;;44.67;23.63;;;13.10;99.90;;;;;;5074811;28;20025;-78
2022/04/14 09:09:55;;;;;;;53.10;25.90;;;13.00;99.90;;;;;;5074422;28;20090;-78
2022/04/14 09:12:21;;;;;;;55.45;27.63;;;13.00;99.90;;;;;;5074598;28;20468;-78
2022/04/14 09:14:48;;;;;;;51.92;25.02;;;13.00;99.90;;;;;;5073564;28;20036;-78
2022/04/14 09:17:15;;;;;;;47.67;25.48;;;13.00;99.90;;;;;;5074620;28;20043;-78
2022/04/14 09:19:43;;;;;;;51.95;25.48;;;13.00;99.90;;;;;;5074619;28;20127;-78
2022/04/14 09:22:14;;;;;;;43.83;25.02;;;13.00;99.90;;;;;;5074434;28;20032;-78
2022/04/14 09:24:47;;;;;;;47.58;25.20;;;13.00;99.90;;;;;;5073987;28;20050;-78
2022/04/14 09:27:37;;;;;;;43.78;23.45;;;13.00;99.90;;;;;;5074419;28;20456;-78
2022/04/14 09:30:06;;;;;;;45.78;23.20;;;13.00;99.90;;;;;;5074430;28;20044;-78
2022/04/14 09:32:37;;;;;;;42.05;23.58;;;12.90;99.90;;;;;;5072467;28;20021;-78
2022/04/14 09:35:16;;;;;;;45.95;23.48;;;12.90;99.90;;;;;;5074173;28;20052;-78
2022/04/14 09:37:42;;;;;;;39.38;22.63;;;13.00;99.90;;;;;;5073792;28;20024;-78
2022/04/14 09:40:09;;;;;;;42.92;21.50;;;12.90;99.90;;;;;;5072186;28;20023;-78
2022/04/14 09:42:37;;;;;;;38.15;21.92;;;12.90;99.90;;;;;;5073922;28;20025;-79
2022/04/14 09:45:22;;;;;;;38.22;23.15;;;12.90;99.90;;;;;;5072803;28;20444;-79
2022/04/14 09:47:49;;;;;;;42.92;22.67;;;12.90;99.90;;;;;;5073339;28;20036;-79
2022/04/14 09:50:39;;;;;;;38.80;22.00;;;12.90;99.90;;;;;;5072171;28;20381;-79
2022/04/14 09:53:05;;;;;;;36.30;21.83;;;12.90;99.90;;;;;;5069952;28;20753;-78
2022/04/14 09:55:34;;;;;;;44.17;23.05;;;12.90;99.90;;;;;;5071825;28;20021;-78
2022/04/14 09:58:19;;;;;;;42.30;22.85;;;12.90;99.90;;;;;;5073357;28;20502;-78
2022/04/14 10:00:49;;;;;;;41.88;22.80;;;12.80;99.90;;;;;;5073296;28;20107;-78
2022/04/14 10:03:23;;;;;;;37.92;22.10;;;12.90;99.90;;;;;;5072775;28;20033;-78
2022/04/14 10:05:50;;;;;;;33.05;19.48;;;12.90;99.90;;;;;;5073533;28;20075;-78
2022/04/14 10:08:16;;;;;;;31.75;19.30;;;12.90;99.90;;;;;;5073480;28;20021;-77
2022/04/14 10:10:47;;;;;;;44.75;24.60;;;12.90;99.90;;;;;;5073289;28;20380;-78
2022/04/14 10:13:15;;;;;;;49.13;23.60;;;13.00;99.90;;;;;;5072470;28;20411;-78
2022/04/14 10:15:42;;;;;;;41.20;24.30;;;12.90;99.90;;;;;;5073031;28;20025;-78
2022/04/14 10:18:15;;;;;;;39.33;22.65;;;13.00;99.90;;;;;;5055070;28;20111;-78
2022/04/14 10:20:43;;;;;;;36.88;20.58;;;13.00;99.90;;;;;;5073195;28;20035;-78
2022/04/14 10:23:11;;;;;;;39.40;24.75;;;13.00;99.90;;;;;;5073274;28;20051;-78
2022/04/14 10:25:38;;;;;;;44.53;25.00;;;13.00;99.90;;;;;;5072362;28;20044;-78
2022/04/14 10:28:06;;;;;;;38.05;24.65;;;13.10;99.90;;;;;;5055298;28;20020;-78
2022/04/14 10:30:32;;;;;;;42.85;24.42;;;13.10;99.90;;;;;;5073136;28;20024;-78
2022/04/14 10:32:58;;;;;;;40.15;23.63;;;13.00;99.90;;;;;;5072850;28;20032;-78
2022/04/14 10:35:29;;;;;;;43.97;26.40;;;13.00;99.90;;;;;;5072832;28;20025;-78
2022/04/14 10:38:12;;;;;;;42.08;25.25;;;13.00;99.90;;;;;;5055063;28;20020;-78
2022/04/14 10:40:49;;;;;;;43.25;25.02;;;13.00;99.90;;;;;;5067710;28;20032;-77
2022/04/14 10:43:19;;;;;;;42.83;24.65;;;13.00;99.90;;;;;;5071830;28;20024;-77
2022/04/14 10:45:59;;;;;;;35.10;19.95;;;13.00;99.90;;;;;;5073129;28;20031;-77
2022/04/14 10:48:39;;;;;;;29.67;18.25;;;13.00;99.90;;;;;;5072341;28;20031;-77
2022/04/14 10:51:32;;;;;;;28.02;16.42;;;13.00;99.90;;;;;;5072169;28;20104;-77
2022/04/14 10:54:05;;;;;;;28.17;14.05;;;13.00;99.90;;;;;;5056881;28;20029;-77
2022/04/14 10:56:33;;;;;;;23.75;13.23;;;13.00;99.90;;;;;;5072844;28;20541;-77
2022/04/14 10:59:29;;;;;;;34.28;17.55;;;12.90;99.90;;;;;;5054612;28;20017;-77
2022/04/14 11:01:57;;;;;;;37.65;18.05;;;12.90;99.90;;;;;;5050892;28;20037;-77
2022/04/14 11:04:41;;;;;;;31.27;15.23;;;12.90;99.90;;;;;;5072470;28;20047;-77
2022/04/14 11:07:14;;;;;;;24.08;13.15;;;12.90;99.90;;;;;;5054814;28;20021;-78
2022/04/14 11:09:42;;;;;;;21.85;10.38;;;12.90;99.90;;;;;;5071736;28;20058;-78
2022/04/14 11:12:28;;;;;;;15.25;9.38;;;12.90;99.90;;;;;;5072407;28;20449;-78
2022/04/14 11:15:06;;;;;;;16.25;9.23;;;12.90;99.90;;;;;;5046831;28;20107;-78
2022/04/14 11:17:53;;;;;;;15.80;9.48;;;12.90;99.90;;;;;;5060740;28;20024;-78
2022/04/14 11:20:45;;;;;;;13.48;8.73;;;12.90;99.90;;;;;;5067536;28;20033;-77
2022/04/14 11:23:26;;;;;;;14.50;8.93;;;12.90;99.90;;;;;;5049653;28;20031;-77
2022/04/14 11:26:04;;;;;;;12.45;7.85;;;12.90;99.90;;;;;;5070836;28;20033;-77
2022/04/14 11:28:31;;;;;;;15.05;8.38;;;12.90;99.90;;;;;;5071916;28;20024;-77
2022/04/14 11:31:21;;;;;;;15.65;7.07;;;12.90;99.90;;;;;;5052790;28;20136;-77
2022/04/14 11:33:48;;;;;;;14.23;7.97;;;12.80;99.90;;;;;;5071928;28;20028;-77
2022/04/14 11:36:25;;;;;;;13.70;7.78;;;12.80;99.90;;;;;;5071848;28;20096;-78
2022/04/14 11:38:57;;;;;;;14.32;7.35;;;12.90;99.90;;;;;;5071492;28;20052;-77
2022/04/14 11:41:50;;;;;;;12.73;7.63;;;12.80;99.90;;;;;;5072248;28;20027;-78
2022/04/14 11:44:17;;;;;;;15.45;8.23;;;12.90;99.90;;;;;;5067834;28;20029;-78
2022/04/14 11:46:45;;;;;;;14.82;6.88;;;12.90;99.90;;;;;;5069769;28;20033;-78
2022/04/14 11:49:21;;;;;;;14.90;7.55;;;12.90;99.90;;;;;;5071005;28;20030;-78
2022/04/14 11:51:48;;;;;;;13.57;7.60;;;12.80;99.90;;;;;;5072334;28;20029;-78
2022/04/14 11:54:34;;;;;;;10.00;6.07;;;12.90;99.90;;;;;;5071672;28;20055;-78
2022/04/14 11:57:06;;;;;;;7.32;3.97;;;12.90;99.90;;;;;;5072375;28;20028;-78
2022/04/14 11:59:41;;;;;;;5.53;3.28;;;12.80;99.90;;;;;;5072269;28;20025;-78
2022/04/14 12:02:10;;;;;;;7.18;2.88;;;12.80;99.90;;;;;;5075140;28;20040;-78
2022/04/14 12:04:37;;;;;;;4.47;2.33;;;12.70;99.90;;;;;;5076034;28;20025;-78
2022/04/14 12:07:03;;;;;;;4.70;2.35;;;12.70;99.90;;;;;;5076161;28;20453;-78
2022/04/14 12:09:29;;;;;;;5.53;2.95;;;12.60;99.90;;;;;;5075697;28;20103;-78
2022/04/14 12:11:54;;;;;;;2.75;2.38;;;12.70;99.90;;;;;;5058216;28;20523;-79
2022/04/14 12:14:21;;;;;;;4.93;2.50;;;12.70;99.90;;;;;;5075625;28;20032;-78
2022/04/14 12:16:51;;;;;;;4.68;2.05;;;12.70;99.90;;;;;;5072364;28;20028;-78
2022/04/14 12:19:22;;;;;;;4.00;2.53;;;12.80;99.90;;;;;;5075121;28;20078;-79
2022/04/14 12:22:04;;;;;;;3.25;1.80;;;13.00;99.90;;;;;;5075807;28;20021;-79
2022/04/14 12:24:30;;;;;;;2.25;1.77;;;13.10;99.90;;;;;;5074862;28;20021;-79
2022/04/14 12:26:57;;;;;;;2.67;1.55;;;13.20;99.90;;;;;;5075616;28;20060;-79
2022/04/14 12:29:23;;;;;;;1.52;1.17;;;13.30;99.90;;;;;;5075613;28;20031;-79
2022/04/14 12:31:49;;;;;;;2.33;1.13;;;13.30;99.90;;;;;;5075723;28;20614;-79